sensor_id;sensor_type;location;lat;lon;timestamp;temperature;humidity
3626;DHT22;1827;50.534;8.316;2023-12-20T00:01:17;5.30;1.00
3626;DHT22;1827;50.534;8.316;2023-12-20T00:03:42;5.30;1.00
3626;DHT22;1827;50.534;8.316;2023-12-20T00:06:08;5.30;1.00
3626;DHT22;1827;50.534;8.316;2023-12-20T00:08:34;5.40;1.00
3626;DHT22;1827;50.534;8.316;2023-12-20T00:10:59;5.30;1.00
3626;DHT22;1827;50.534;8.316;2023-12-20T00:13:25;5.30;1.00
3626;DHT22;1827;50.534;8.316;2023-12-20T00:15:50;5.30;1.00
3626;DHT22;1827;50.534;8.316;2023-12-20T00:18:16;5.30;1.00
3626;DHT22;1827;50.534;8.316;2023-12-20T00:20:42;5.40;1.00
3626;DHT22;1827;50.534;8.316;2023-12-20T00:23:08;5.40;1.00
3626;DHT22;1827;50.534;8.316;2023-12-20T00:25:34;5.30;1.00
3626;DHT22;1827;50.534;8.316;2023-12-20T00:28:00;5.30;1.00
3626;DHT22;1827;50.534;8.316;2023-12-20T00:30:26;5.40;1.00
3626;DHT22;1827;50.534;8.316;2023-12-20T00:32:52;5.40;1.00
3626;DHT22;1827;50.534;8.316;2023-12-20T00:35:17;5.30;1.00
3626;DHT22;1827;50.534;8.316;2023-12-20T00:37:43;5.40;1.00
3626;DHT22;1827;50.534;8.316;2023-12-20T00:40:08;5.30;1.00
3626;DHT22;1827;50.534;8.316;2023-12-20T00:42:34;5.30;1.00
3626;DHT22;1827;50.534;8.316;2023-12-20T00:45:01;5.30;1.00
3626;DHT22;1827;50.534;8.316;2023-12-20T00:47:26;5.30;1.00
3626;DHT22;1827;50.534;8.316;2023-12-20T00:49:52;5.30;1.00
3626;DHT22;1827;50.534;8.316;2023-12-20T00:52:18;5.30;1.00
3626;DHT22;1827;50.534;8.316;2023-12-20T00:54:44;5.30;1.00
3626;DHT22;1827;50.534;8.316;2023-12-20T00:57:09;5.30;1.00
3626;DHT22;1827;50.534;8.316;2023-12-20T00:59:35;5.30;1.00
3626;DHT22;1827;50.534;8.316;2023-12-20T01:02:00;5.40;1.00
3626;DHT22;1827;50.534;8.316;2023-12-20T01:04:26;5.40;1.00
3626;DHT22;1827;50.534;8.316;2023-12-20T01:06:52;5.40;1.00
3626;DHT22;1827;50.534;8.316;2023-12-20T01:09:17;5.40;99.90
3626;DHT22;1827;50.534;8.316;2023-12-20T01:11:44;5.40;99.90
3626;DHT22;1827;50.534;8.316;2023-12-20T01:14:09;5.40;99.90
3626;DHT22;1827;50.534;8.316;2023-12-20T01:16:35;5.40;99.90
3626;DHT22;1827;50.534;8.316;2023-12-20T01:19:00;5.40;99.90
3626;DHT22;1827;50.534;8.316;2023-12-20T01:21:26;5.40;99.90
3626;DHT22;1827;50.534;8.316;2023-12-20T01:23:51;5.50;99.90
3626;DHT22;1827;50.534;8.316;2023-12-20T01:26:17;5.40;99.90
3626;DHT22;1827;50.534;8.316;2023-12-20T01:28:42;5.40;99.90
3626;DHT22;1827;50.534;8.316;2023-12-20T01:31:08;5.40;99.90
3626;DHT22;1827;50.534;8.316;2023-12-20T01:33:34;5.40;99.90
3626;DHT22;1827;50.534;8.316;2023-12-20T01:35:59;5.40;99.90
3626;DHT22;1827;50.534;8.316;2023-12-20T01:38:25;5.40;99.90
3626;DHT22;1827;50.534;8.316;2023-12-20T01:40:51;5.40;99.90
3626;DHT22;1827;50.534;8.316;2023-12-20T01:43:16;5.50;99.90
3626;DHT22;1827;50.534;8.316;2023-12-20T01:45:42;5.50;99.90
3626;DHT22;1827;50.534;8.316;2023-12-20T01:48:07;5.40;99.90
3626;DHT22;1827;50.534;8.316;2023-12-20T01:50:34;5.40;99.90
3626;DHT22;1827;50.534;8.316;2023-12-20T01:53:01;5.50;99.90
3626;DHT22;1827;50.534;8.316;2023-12-20T01:55:27;5.40;92.40
3626;DHT22;1827;50.534;8.316;2023-12-20T01:57:55;5.40;99.90
3626;DHT22;1827;50.534;8.316;2023-12-20T02:00:21;5.40;94.90
3626;DHT22;1827;50.534;8.316;2023-12-20T02:02:48;5.40;94.00
3626;DHT22;1827;50.534;8.316;2023-12-20T02:05:15;5.50;59.60
3626;DHT22;1827;50.534;8.316;2023-12-20T02:07:42;5.40;22.90
3626;DHT22;1827;50.534;8.316;2023-12-20T02:10:07;5.40;2.50
3626;DHT22;1827;50.534;8.316;2023-12-20T02:12:33;5.50;1.00
3626;DHT22;1827;50.534;8.316;2023-12-20T02:14:58;5.40;1.00
3626;DHT22;1827;50.534;8.316;2023-12-20T02:17:24;5.40;1.00
3626;DHT22;1827;50.534;8.316;2023-12-20T02:19:50;5.50;1.00
3626;DHT22;1827;50.534;8.316;2023-12-20T02:22:16;5.50;1.00
3626;DHT22;1827;50.534;8.316;2023-12-20T02:24:41;5.40;1.00
3626;DHT22;1827;50.534;8.316;2023-12-20T02:27:07;5.40;1.00
3626;DHT22;1827;50.534;8.316;2023-12-20T02:29:34;5.60;8.70
3626;DHT22;1827;50.534;8.316;2023-12-20T02:31:59;5.50;1.00
3626;DHT22;1827;50.534;8.316;2023-12-20T02:34:25;5.50;1.00
3626;DHT22;1827;50.534;8.316;2023-12-20T02:36:50;5.40;1.00
3626;DHT22;1827;50.534;8.316;2023-12-20T02:39:16;5.50;67.00
3626;DHT22;1827;50.534;8.316;2023-12-20T02:41:42;5.50;90.50
3626;DHT22;1827;50.534;8.316;2023-12-20T02:44:07;5.50;99.90
3626;DHT22;1827;50.534;8.316;2023-12-20T02:46:33;5.50;99.90
3626;DHT22;1827;50.534;8.316;2023-12-20T02:48:59;5.50;99.90
3626;DHT22;1827;50.534;8.316;2023-12-20T02:51:24;5.50;99.90
3626;DHT22;1827;50.534;8.316;2023-12-20T02:53:50;5.40;99.90
3626;DHT22;1827;50.534;8.316;2023-12-20T02:56:17;5.40;99.90
3626;DHT22;1827;50.534;8.316;2023-12-20T02:58:43;5.40;99.90
3626;DHT22;1827;50.534;8.316;2023-12-20T03:01:08;5.50;99.90
3626;DHT22;1827;50.534;8.316;2023-12-20T03:03:34;5.40;1.00
3626;DHT22;1827;50.534;8.316;2023-12-20T03:06:00;5.30;1.00
3626;DHT22;1827;50.534;8.316;2023-12-20T03:08:26;5.30;1.00
3626;DHT22;1827;50.534;8.316;2023-12-20T03:10:53;5.20;1.00
3626;DHT22;1827;50.534;8.316;2023-12-20T03:13:19;5.10;1.00
3626;DHT22;1827;50.534;8.316;2023-12-20T03:15:48;5.10;1.00
3626;DHT22;1827;50.534;8.316;2023-12-20T03:18:14;5.00;1.00
3626;DHT22;1827;50.534;8.316;2023-12-20T03:20:40;5.00;1.00
3626;DHT22;1827;50.534;8.316;2023-12-20T03:23:06;5.00;1.00
3626;DHT22;1827;50.534;8.316;2023-12-20T03:25:32;5.10;1.00
3626;DHT22;1827;50.534;8.316;2023-12-20T03:27:58;5.10;1.00
3626;DHT22;1827;50.534;8.316;2023-12-20T03:30:23;5.00;1.00
3626;DHT22;1827;50.534;8.316;2023-12-20T03:32:49;5.00;1.00
3626;DHT22;1827;50.534;8.316;2023-12-20T03:35:14;5.00;1.00
3626;DHT22;1827;50.534;8.316;2023-12-20T03:37:40;5.20;26.50
3626;DHT22;1827;50.534;8.316;2023-12-20T03:40:06;5.20;6.50
3626;DHT22;1827;50.534;8.316;2023-12-20T03:42:32;5.20;1.00
3626;DHT22;1827;50.534;8.316;2023-12-20T03:44:58;5.30;1.00
3626;DHT22;1827;50.534;8.316;2023-12-20T03:47:25;5.20;1.00
3626;DHT22;1827;50.534;8.316;2023-12-20T03:49:51;5.20;1.00
3626;DHT22;1827;50.534;8.316;2023-12-20T03:52:20;5.20;1.00
3626;DHT22;1827;50.534;8.316;2023-12-20T03:54:45;5.10;1.00
3626;DHT22;1827;50.534;8.316;2023-12-20T03:57:11;5.10;1.00
3626;DHT22;1827;50.534;8.316;2023-12-20T03:59:37;5.10;1.00
3626;DHT22;1827;50.534;8.316;2023-12-20T04:02:03;5.10;1.00
3626;DHT22;1827;50.534;8.316;2023-12-20T04:04:31;5.00;99.90
3626;DHT22;1827;50.534;8.316;2023-12-20T04:06:57;4.90;99.90
3626;DHT22;1827;50.534;8.316;2023-12-20T04:09:22;4.90;99.90
3626;DHT22;1827;50.534;8.316;2023-12-20T04:11:48;4.90;1.00
3626;DHT22;1827;50.534;8.316;2023-12-20T04:14:14;4.80;1.00
3626;DHT22;1827;50.534;8.316;2023-12-20T04:16:40;4.90;1.00
3626;DHT22;1827;50.534;8.316;2023-12-20T04:19:05;4.90;1.00
3626;DHT22;1827;50.534;8.316;2023-12-20T04:21:31;4.90;99.90
3626;DHT22;1827;50.534;8.316;2023-12-20T04:23:57;4.90;99.90
3626;DHT22;1827;50.534;8.316;2023-12-20T04:26:23;5.00;97.50
3626;DHT22;1827;50.534;8.316;2023-12-20T04:28:50;5.10;1.00
3626;DHT22;1827;50.534;8.316;2023-12-20T04:31:16;5.10;1.00
3626;DHT22;1827;50.534;8.316;2023-12-20T04:33:43;5.00;1.00
3626;DHT22;1827;50.534;8.316;2023-12-20T04:36:09;5.00;99.90
3626;DHT22;1827;50.534;8.316;2023-12-20T04:38:38;4.90;99.90
3626;DHT22;1827;50.534;8.316;2023-12-20T04:41:04;4.80;99.90
3626;DHT22;1827;50.534;8.316;2023-12-20T04:43:32;4.70;4.00
3626;DHT22;1827;50.534;8.316;2023-12-20T04:45:57;4.80;1.00
3626;DHT22;1827;50.534;8.316;2023-12-20T04:48:25;4.80;1.00
3626;DHT22;1827;50.534;8.316;2023-12-20T04:50:51;4.80;1.00
3626;DHT22;1827;50.534;8.316;2023-12-20T04:53:16;4.80;1.00
3626;DHT22;1827;50.534;8.316;2023-12-20T04:55:43;4.90;1.00
3626;DHT22;1827;50.534;8.316;2023-12-20T04:58:09;4.90;1.00
3626;DHT22;1827;50.534;8.316;2023-12-20T05:00:35;4.90;1.00
3626;DHT22;1827;50.534;8.316;2023-12-20T05:03:01;4.90;1.00
3626;DHT22;1827;50.534;8.316;2023-12-20T05:05:29;4.90;1.00
3626;DHT22;1827;50.534;8.316;2023-12-20T05:07:55;4.90;1.00
3626;DHT22;1827;50.534;8.316;2023-12-20T05:10:21;4.70;99.90
3626;DHT22;1827;50.534;8.316;2023-12-20T05:12:47;4.70;99.90
3626;DHT22;1827;50.534;8.316;2023-12-20T05:15:13;4.70;99.90
3626;DHT22;1827;50.534;8.316;2023-12-20T05:17:38;4.70;99.90
3626;DHT22;1827;50.534;8.316;2023-12-20T05:20:07;4.80;99.90
3626;DHT22;1827;50.534;8.316;2023-12-20T05:22:33;4.70;99.90
3626;DHT22;1827;50.534;8.316;2023-12-20T05:25:02;4.80;99.90
3626;DHT22;1827;50.534;8.316;2023-12-20T05:27:28;4.80;99.90
3626;DHT22;1827;50.534;8.316;2023-12-20T05:29:54;4.80;99.90
3626;DHT22;1827;50.534;8.316;2023-12-20T05:32:23;4.70;99.90
3626;DHT22;1827;50.534;8.316;2023-12-20T05:34:49;4.70;99.90
3626;DHT22;1827;50.534;8.316;2023-12-20T05:37:15;4.70;99.90
3626;DHT22;1827;50.534;8.316;2023-12-20T05:39:51;4.70;99.90
3626;DHT22;1827;50.534;8.316;2023-12-20T05:42:19;4.70;99.90
3626;DHT22;1827;50.534;8.316;2023-12-20T05:44:45;4.70;99.90
3626;DHT22;1827;50.534;8.316;2023-12-20T05:47:10;4.80;99.90
3626;DHT22;1827;50.534;8.316;2023-12-20T05:49:36;4.70;99.90
3626;DHT22;1827;50.534;8.316;2023-12-20T05:52:02;4.70;99.90
3626;DHT22;1827;50.534;8.316;2023-12-20T05:54:27;4.60;99.90
3626;DHT22;1827;50.534;8.316;2023-12-20T05:56:53;4.50;99.90
3626;DHT22;1827;50.534;8.316;2023-12-20T05:59:20;4.50;99.90
3626;DHT22;1827;50.534;8.316;2023-12-20T06:01:48;4.40;99.90
3626;DHT22;1827;50.534;8.316;2023-12-20T06:04:37;4.50;99.90
3626;DHT22;1827;50.534;8.316;2023-12-20T06:07:14;4.60;99.90
3626;DHT22;1827;50.534;8.316;2023-12-20T06:09:40;4.60;99.90
3626;DHT22;1827;50.534;8.316;2023-12-20T06:12:09;4.70;99.90
3626;DHT22;1827;50.534;8.316;2023-12-20T06:14:46;4.70;99.90
3626;DHT22;1827;50.534;8.316;2023-12-20T06:17:12;4.70;99.90
3626;DHT22;1827;50.534;8.316;2023-12-20T06:19:41;4.80;99.90
3626;DHT22;1827;50.534;8.316;2023-12-20T06:22:15;4.80;99.90
3626;DHT22;1827;50.534;8.316;2023-12-20T06:24:40;4.80;99.90
3626;DHT22;1827;50.534;8.316;2023-12-20T06:27:09;4.80;99.90
3626;DHT22;1827;50.534;8.316;2023-12-20T06:29:38;4.70;99.90
3626;DHT22;1827;50.534;8.316;2023-12-20T06:32:10;4.70;99.90
3626;DHT22;1827;50.534;8.316;2023-12-20T06:34:39;4.70;99.90
3626;DHT22;1827;50.534;8.316;2023-12-20T06:37:05;4.80;99.90
3626;DHT22;1827;50.534;8.316;2023-12-20T06:39:31;4.80;99.90
3626;DHT22;1827;50.534;8.316;2023-12-20T06:41:57;4.80;99.90
3626;DHT22;1827;50.534;8.316;2023-12-20T06:44:22;4.80;99.90
3626;DHT22;1827;50.534;8.316;2023-12-20T06:46:48;4.80;99.90
3626;DHT22;1827;50.534;8.316;2023-12-20T06:49:13;4.90;99.90
3626;DHT22;1827;50.534;8.316;2023-12-20T06:51:39;4.90;99.90
3626;DHT22;1827;50.534;8.316;2023-12-20T06:54:05;4.90;99.90
3626;DHT22;1827;50.534;8.316;2023-12-20T06:56:30;4.90;99.90
3626;DHT22;1827;50.534;8.316;2023-12-20T06:58:56;4.80;99.90
3626;DHT22;1827;50.534;8.316;2023-12-20T07:01:22;4.80;99.90
3626;DHT22;1827;50.534;8.316;2023-12-20T07:03:48;4.80;99.90
3626;DHT22;1827;50.534;8.316;2023-12-20T07:06:13;4.80;99.90
3626;DHT22;1827;50.534;8.316;2023-12-20T07:08:41;4.90;99.90
3626;DHT22;1827;50.534;8.316;2023-12-20T07:11:07;4.90;99.90
3626;DHT22;1827;50.534;8.316;2023-12-20T07:13:33;4.90;99.90
3626;DHT22;1827;50.534;8.316;2023-12-20T07:15:59;4.90;99.90
3626;DHT22;1827;50.534;8.316;2023-12-20T07:18:25;4.90;99.90
3626;DHT22;1827;50.534;8.316;2023-12-20T07:20:50;4.90;99.90
3626;DHT22;1827;50.534;8.316;2023-12-20T07:23:16;4.90;99.90
3626;DHT22;1827;50.534;8.316;2023-12-20T07:25:43;4.90;99.90
3626;DHT22;1827;50.534;8.316;2023-12-20T07:28:08;4.90;99.90
3626;DHT22;1827;50.534;8.316;2023-12-20T07:30:34;4.90;99.90
3626;DHT22;1827;50.534;8.316;2023-12-20T07:33:00;4.90;99.90
3626;DHT22;1827;50.534;8.316;2023-12-20T07:35:26;5.00;99.90
3626;DHT22;1827;50.534;8.316;2023-12-20T07:37:52;4.90;99.90
3626;DHT22;1827;50.534;8.316;2023-12-20T07:40:21;4.90;99.90
3626;DHT22;1827;50.534;8.316;2023-12-20T07:42:49;4.80;99.90
3626;DHT22;1827;50.534;8.316;2023-12-20T07:45:15;4.90;99.90
3626;DHT22;1827;50.534;8.316;2023-12-20T07:47:41;4.90;99.90
3626;DHT22;1827;50.534;8.316;2023-12-20T07:50:06;4.90;99.90
3626;DHT22;1827;50.534;8.316;2023-12-20T07:52:32;4.90;99.90
3626;DHT22;1827;50.534;8.316;2023-12-20T07:54:58;4.90;99.90
3626;DHT22;1827;50.534;8.316;2023-12-20T07:57:24;4.90;99.90
3626;DHT22;1827;50.534;8.316;2023-12-20T07:59:50;4.80;99.90
3626;DHT22;1827;50.534;8.316;2023-12-20T08:02:16;4.90;99.90
3626;DHT22;1827;50.534;8.316;2023-12-20T08:04:42;4.90;99.90
3626;DHT22;1827;50.534;8.316;2023-12-20T08:07:07;4.90;99.90
3626;DHT22;1827;50.534;8.316;2023-12-20T08:09:33;4.90;99.90
3626;DHT22;1827;50.534;8.316;2023-12-20T08:12:02;4.90;99.90
3626;DHT22;1827;50.534;8.316;2023-12-20T08:14:28;4.80;99.90
3626;DHT22;1827;50.534;8.316;2023-12-20T08:16:54;4.90;99.90
3626;DHT22;1827;50.534;8.316;2023-12-20T08:19:20;4.90;99.90
3626;DHT22;1827;50.534;8.316;2023-12-20T08:21:45;4.90;99.90
3626;DHT22;1827;50.534;8.316;2023-12-20T08:24:11;4.90;99.90
3626;DHT22;1827;50.534;8.316;2023-12-20T08:26:37;4.90;99.90
3626;DHT22;1827;50.534;8.316;2023-12-20T08:29:04;4.90;99.90
3626;DHT22;1827;50.534;8.316;2023-12-20T08:31:30;4.90;99.90
3626;DHT22;1827;50.534;8.316;2023-12-20T08:33:56;4.90;99.90
3626;DHT22;1827;50.534;8.316;2023-12-20T08:36:22;5.00;99.90
3626;DHT22;1827;50.534;8.316;2023-12-20T08:38:50;5.00;99.90
3626;DHT22;1827;50.534;8.316;2023-12-20T08:41:17;5.00;99.90
3626;DHT22;1827;50.534;8.316;2023-12-20T08:43:43;5.00;99.90
3626;DHT22;1827;50.534;8.316;2023-12-20T08:46:08;5.00;99.90
3626;DHT22;1827;50.534;8.316;2023-12-20T08:48:37;5.10;99.90
3626;DHT22;1827;50.534;8.316;2023-12-20T08:51:03;5.10;99.90
3626;DHT22;1827;50.534;8.316;2023-12-20T08:53:29;5.00;99.90
3626;DHT22;1827;50.534;8.316;2023-12-20T08:55:55;5.10;99.90
3626;DHT22;1827;50.534;8.316;2023-12-20T08:58:21;5.20;99.90
3626;DHT22;1827;50.534;8.316;2023-12-20T09:00:47;5.20;99.90
3626;DHT22;1827;50.534;8.316;2023-12-20T09:03:13;5.20;99.90
3626;DHT22;1827;50.534;8.316;2023-12-20T09:05:39;5.20;99.90
3626;DHT22;1827;50.534;8.316;2023-12-20T09:08:04;5.30;99.90
3626;DHT22;1827;50.534;8.316;2023-12-20T09:10:30;5.30;99.90
3626;DHT22;1827;50.534;8.316;2023-12-20T09:12:56;5.20;99.90
3626;DHT22;1827;50.534;8.316;2023-12-20T09:15:23;5.20;99.90
3626;DHT22;1827;50.534;8.316;2023-12-20T09:17:52;5.30;99.90
3626;DHT22;1827;50.534;8.316;2023-12-20T09:20:18;5.30;99.90
3626;DHT22;1827;50.534;8.316;2023-12-20T09:22:45;5.30;69.00
3626;DHT22;1827;50.534;8.316;2023-12-20T09:25:10;5.30;27.90
3626;DHT22;1827;50.534;8.316;2023-12-20T09:27:38;5.20;1.00
3626;DHT22;1827;50.534;8.316;2023-12-20T09:30:04;5.30;1.00
3626;DHT22;1827;50.534;8.316;2023-12-20T09:32:31;5.30;1.00
3626;DHT22;1827;50.534;8.316;2023-12-20T09:34:57;5.30;1.00
3626;DHT22;1827;50.534;8.316;2023-12-20T09:37:27;5.20;1.00
3626;DHT22;1827;50.534;8.316;2023-12-20T09:39:54;5.30;1.00
3626;DHT22;1827;50.534;8.316;2023-12-20T09:42:23;5.30;1.00
3626;DHT22;1827;50.534;8.316;2023-12-20T09:44:50;5.40;1.00
3626;DHT22;1827;50.534;8.316;2023-12-20T09:47:15;5.40;1.00
3626;DHT22;1827;50.534;8.316;2023-12-20T09:49:44;5.40;1.00
3626;DHT22;1827;50.534;8.316;2023-12-20T09:52:11;5.40;1.00
3626;DHT22;1827;50.534;8.316;2023-12-20T09:54:38;5.40;1.00
3626;DHT22;1827;50.534;8.316;2023-12-20T09:57:04;5.40;1.00
3626;DHT22;1827;50.534;8.316;2023-12-20T09:59:30;5.40;1.00
3626;DHT22;1827;50.534;8.316;2023-12-20T10:01:56;5.50;1.00
3626;DHT22;1827;50.534;8.316;2023-12-20T10:04:25;5.50;1.00
3626;DHT22;1827;50.534;8.316;2023-12-20T10:06:51;5.50;1.00
3626;DHT22;1827;50.534;8.316;2023-12-20T10:09:17;5.50;1.00
3626;DHT22;1827;50.534;8.316;2023-12-20T10:11:43;5.60;1.00
3626;DHT22;1827;50.534;8.316;2023-12-20T10:14:10;5.50;1.00
3626;DHT22;1827;50.534;8.316;2023-12-20T10:16:36;5.50;1.00
3626;DHT22;1827;50.534;8.316;2023-12-20T10:19:02;5.60;1.00
3626;DHT22;1827;50.534;8.316;2023-12-20T10:21:28;5.60;1.00
3626;DHT22;1827;50.534;8.316;2023-12-20T10:23:54;5.50;1.00
3626;DHT22;1827;50.534;8.316;2023-12-20T10:26:21;5.60;1.00
3626;DHT22;1827;50.534;8.316;2023-12-20T10:28:50;5.70;1.00
3626;DHT22;1827;50.534;8.316;2023-12-20T10:31:27;5.70;1.00
3626;DHT22;1827;50.534;8.316;2023-12-20T10:33:56;5.80;1.00
3626;DHT22;1827;50.534;8.316;2023-12-20T10:36:23;5.80;1.00
3626;DHT22;1827;50.534;8.316;2023-12-20T10:38:49;5.90;1.00
3626;DHT22;1827;50.534;8.316;2023-12-20T10:41:16;6.00;1.00
3626;DHT22;1827;50.534;8.316;2023-12-20T10:43:43;6.00;1.00
3626;DHT22;1827;50.534;8.316;2023-12-20T10:46:10;6.00;1.00
3626;DHT22;1827;50.534;8.316;2023-12-20T10:48:36;6.00;99.90
3626;DHT22;1827;50.534;8.316;2023-12-20T10:51:04;5.90;99.90
3626;DHT22;1827;50.534;8.316;2023-12-20T10:53:30;5.90;99.90
3626;DHT22;1827;50.534;8.316;2023-12-20T10:55:57;5.90;99.90
3626;DHT22;1827;50.534;8.316;2023-12-20T10:58:25;5.90;99.90
3626;DHT22;1827;50.534;8.316;2023-12-20T11:00:52;5.90;99.90
3626;DHT22;1827;50.534;8.316;2023-12-20T11:03:23;6.00;99.90
3626;DHT22;1827;50.534;8.316;2023-12-20T11:05:58;6.00;99.90
3626;DHT22;1827;50.534;8.316;2023-12-20T11:11:19;6.00;99.90
3626;DHT22;1827;50.534;8.316;2023-12-20T11:14:06;6.00;99.90
3626;DHT22;1827;50.534;8.316;2023-12-20T11:16:37;6.10;99.90
3626;DHT22;1827;50.534;8.316;2023-12-20T11:19:06;6.00;99.90
3626;DHT22;1827;50.534;8.316;2023-12-20T11:21:32;6.10;99.90
3626;DHT22;1827;50.534;8.316;2023-12-20T11:23:58;6.10;99.90
3626;DHT22;1827;50.534;8.316;2023-12-20T11:26:28;6.10;99.90
3626;DHT22;1827;50.534;8.316;2023-12-20T11:29:28;6.10;99.90
3626;DHT22;1827;50.534;8.316;2023-12-20T11:31:40;6.10;99.90
3626;DHT22;1827;50.534;8.316;2023-12-20T11:34:13;6.10;99.90
3626;DHT22;1827;50.534;8.316;2023-12-20T11:36:39;6.10;99.90
3626;DHT22;1827;50.534;8.316;2023-12-20T11:39:05;6.10;99.90
3626;DHT22;1827;50.534;8.316;2023-12-20T11:41:36;6.10;99.90
3626;DHT22;1827;50.534;8.316;2023-12-20T11:44:04;6.10;99.90
3626;DHT22;1827;50.534;8.316;2023-12-20T11:46:31;6.10;99.90
3626;DHT22;1827;50.534;8.316;2023-12-20T11:48:57;6.20;99.90
3626;DHT22;1827;50.534;8.316;2023-12-20T11:51:23;6.10;99.90
3626;DHT22;1827;50.534;8.316;2023-12-20T11:53:52;6.10;99.90
3626;DHT22;1827;50.534;8.316;2023-12-20T11:56:18;6.20;99.90
3626;DHT22;1827;50.534;8.316;2023-12-20T11:58:45;6.20;99.90
3626;DHT22;1827;50.534;8.316;2023-12-20T12:01:10;6.20;99.90
3626;DHT22;1827;50.534;8.316;2023-12-20T12:03:39;6.20;99.90
3626;DHT22;1827;50.534;8.316;2023-12-20T12:06:05;6.00;99.90
3626;DHT22;1827;50.534;8.316;2023-12-20T12:08:31;6.00;99.90
3626;DHT22;1827;50.534;8.316;2023-12-20T12:11:00;6.00;99.90
3626;DHT22;1827;50.534;8.316;2023-12-20T12:13:28;6.10;99.90
3626;DHT22;1827;50.534;8.316;2023-12-20T12:15:59;6.10;99.90
3626;DHT22;1827;50.534;8.316;2023-12-20T12:18:25;6.20;99.90
3626;DHT22;1827;50.534;8.316;2023-12-20T12:20:59;6.20;99.90
3626;DHT22;1827;50.534;8.316;2023-12-20T12:23:27;6.20;99.90
3626;DHT22;1827;50.534;8.316;2023-12-20T12:25:54;6.10;99.90
3626;DHT22;1827;50.534;8.316;2023-12-20T12:28:40;6.20;99.90
3626;DHT22;1827;50.534;8.316;2023-12-20T12:31:33;6.20;99.90
3626;DHT22;1827;50.534;8.316;2023-12-20T12:34:02;6.00;99.90
3626;DHT22;1827;50.534;8.316;2023-12-20T12:36:29;6.00;99.90
3626;DHT22;1827;50.534;8.316;2023-12-20T12:38:56;6.00;99.90
3626;DHT22;1827;50.534;8.316;2023-12-20T12:41:25;5.80;99.90
3626;DHT22;1827;50.534;8.316;2023-12-20T12:43:51;5.90;99.90
3626;DHT22;1827;50.534;8.316;2023-12-20T12:46:17;5.90;99.90
3626;DHT22;1827;50.534;8.316;2023-12-20T12:48:43;5.80;99.90
3626;DHT22;1827;50.534;8.316;2023-12-20T12:51:09;5.90;99.90
3626;DHT22;1827;50.534;8.316;2023-12-20T12:53:41;5.90;99.90
3626;DHT22;1827;50.534;8.316;2023-12-20T12:56:11;5.80;99.90
3626;DHT22;1827;50.534;8.316;2023-12-20T12:58:38;5.80;99.90
3626;DHT22;1827;50.534;8.316;2023-12-20T13:01:04;5.80;99.90
3626;DHT22;1827;50.534;8.316;2023-12-20T13:03:32;5.80;99.90
3626;DHT22;1827;50.534;8.316;2023-12-20T13:05:59;5.70;99.90
3626;DHT22;1827;50.534;8.316;2023-12-20T13:08:25;5.70;99.90
3626;DHT22;1827;50.534;8.316;2023-12-20T13:10:51;5.70;99.90
3626;DHT22;1827;50.534;8.316;2023-12-20T13:13:17;5.70;99.90
3626;DHT22;1827;50.534;8.316;2023-12-20T13:15:43;5.60;99.90
3626;DHT22;1827;50.534;8.316;2023-12-20T13:18:16;5.70;99.90
3626;DHT22;1827;50.534;8.316;2023-12-20T13:20:47;5.60;99.90
3626;DHT22;1827;50.534;8.316;2023-12-20T13:23:13;5.60;99.90
3626;DHT22;1827;50.534;8.316;2023-12-20T13:25:39;5.70;99.90
3626;DHT22;1827;50.534;8.316;2023-12-20T13:28:05;5.70;99.90
3626;DHT22;1827;50.534;8.316;2023-12-20T13:30:37;5.70;99.90
3626;DHT22;1827;50.534;8.316;2023-12-20T13:33:06;5.70;99.90
3626;DHT22;1827;50.534;8.316;2023-12-20T13:35:38;5.60;99.90
3626;DHT22;1827;50.534;8.316;2023-12-20T13:38:07;5.60;99.90
3626;DHT22;1827;50.534;8.316;2023-12-20T13:40:51;5.60;99.90
3626;DHT22;1827;50.534;8.316;2023-12-20T13:43:20;5.60;1.00
3626;DHT22;1827;50.534;8.316;2023-12-20T13:45:47;5.60;1.00
3626;DHT22;1827;50.534;8.316;2023-12-20T13:48:15;5.60;1.00
3626;DHT22;1827;50.534;8.316;2023-12-20T13:50:41;5.60;1.00
3626;DHT22;1827;50.534;8.316;2023-12-20T13:53:07;5.60;1.00
3626;DHT22;1827;50.534;8.316;2023-12-20T13:55:33;5.60;1.00
3626;DHT22;1827;50.534;8.316;2023-12-20T13:57:59;5.60;1.00
3626;DHT22;1827;50.534;8.316;2023-12-20T14:00:25;5.70;1.00
3626;DHT22;1827;50.534;8.316;2023-12-20T14:02:51;5.70;1.00
3626;DHT22;1827;50.534;8.316;2023-12-20T14:05:17;5.70;1.00
3626;DHT22;1827;50.534;8.316;2023-12-20T14:07:43;5.80;1.00
3626;DHT22;1827;50.534;8.316;2023-12-20T14:10:15;5.80;1.00
3626;DHT22;1827;50.534;8.316;2023-12-20T14:12:51;5.70;1.00
3626;DHT22;1827;50.534;8.316;2023-12-20T14:15:17;5.70;1.00
3626;DHT22;1827;50.534;8.316;2023-12-20T14:17:42;5.70;1.00
3626;DHT22;1827;50.534;8.316;2023-12-20T14:20:11;5.70;1.00
3626;DHT22;1827;50.534;8.316;2023-12-20T14:22:43;5.70;1.00
3626;DHT22;1827;50.534;8.316;2023-12-20T14:25:12;5.70;1.00
3626;DHT22;1827;50.534;8.316;2023-12-20T14:27:44;5.70;1.00
3626;DHT22;1827;50.534;8.316;2023-12-20T14:30:12;5.70;1.00
3626;DHT22;1827;50.534;8.316;2023-12-20T14:32:39;5.70;1.00
3626;DHT22;1827;50.534;8.316;2023-12-20T14:35:08;5.60;1.00
3626;DHT22;1827;50.534;8.316;2023-12-20T14:37:34;5.70;1.00
3626;DHT22;1827;50.534;8.316;2023-12-20T14:40:00;5.70;1.00
3626;DHT22;1827;50.534;8.316;2023-12-20T14:42:26;5.70;1.00
3626;DHT22;1827;50.534;8.316;2023-12-20T14:44:52;5.70;1.00
3626;DHT22;1827;50.534;8.316;2023-12-20T14:47:20;5.70;1.00
3626;DHT22;1827;50.534;8.316;2023-12-20T14:49:45;5.70;1.00
3626;DHT22;1827;50.534;8.316;2023-12-20T14:52:13;5.70;1.00
3626;DHT22;1827;50.534;8.316;2023-12-20T14:54:39;5.70;1.00
3626;DHT22;1827;50.534;8.316;2023-12-20T14:57:04;5.70;1.00
3626;DHT22;1827;50.534;8.316;2023-12-20T14:59:30;5.70;1.00
3626;DHT22;1827;50.534;8.316;2023-12-20T15:01:56;5.70;1.00
3626;DHT22;1827;50.534;8.316;2023-12-20T15:04:27;5.80;1.00
3626;DHT22;1827;50.534;8.316;2023-12-20T15:06:58;5.80;1.00
3626;DHT22;1827;50.534;8.316;2023-12-20T15:09:26;5.80;1.00
3626;DHT22;1827;50.534;8.316;2023-12-20T15:11:54;5.80;1.00
3626;DHT22;1827;50.534;8.316;2023-12-20T15:14:23;5.70;1.00
3626;DHT22;1827;50.534;8.316;2023-12-20T15:16:49;5.70;1.00
3626;DHT22;1827;50.534;8.316;2023-12-20T15:19:15;5.70;1.00
3626;DHT22;1827;50.534;8.316;2023-12-20T15:21:41;5.70;1.00
3626;DHT22;1827;50.534;8.316;2023-12-20T15:24:10;5.80;1.00
3626;DHT22;1827;50.534;8.316;2023-12-20T15:26:41;5.80;1.00
3626;DHT22;1827;50.534;8.316;2023-12-20T15:29:07;5.70;1.00
3626;DHT22;1827;50.534;8.316;2023-12-20T15:31:35;5.70;1.00
3626;DHT22;1827;50.534;8.316;2023-12-20T15:34:05;5.70;1.00
3626;DHT22;1827;50.534;8.316;2023-12-20T15:36:38;5.70;1.00
3626;DHT22;1827;50.534;8.316;2023-12-20T15:39:07;5.70;1.00
3626;DHT22;1827;50.534;8.316;2023-12-20T15:41:41;5.70;1.00
3626;DHT22;1827;50.534;8.316;2023-12-20T15:44:10;5.70;1.00
3626;DHT22;1827;50.534;8.316;2023-12-20T15:46:38;5.60;1.00
3626;DHT22;1827;50.534;8.316;2023-12-20T15:49:04;5.60;1.00
3626;DHT22;1827;50.534;8.316;2023-12-20T15:51:33;5.60;1.00
3626;DHT22;1827;50.534;8.316;2023-12-20T15:54:02;5.70;1.00
3626;DHT22;1827;50.534;8.316;2023-12-20T15:56:33;5.70;1.00
3626;DHT22;1827;50.534;8.316;2023-12-20T15:59:02;5.60;1.00
3626;DHT22;1827;50.534;8.316;2023-12-20T16:01:29;5.70;1.00
3626;DHT22;1827;50.534;8.316;2023-12-20T16:03:56;5.60;1.00
3626;DHT22;1827;50.534;8.316;2023-12-20T16:06:22;5.70;1.00
3626;DHT22;1827;50.534;8.316;2023-12-20T16:08:48;5.70;1.00
3626;DHT22;1827;50.534;8.316;2023-12-20T16:11:20;5.70;1.00
3626;DHT22;1827;50.534;8.316;2023-12-20T16:13:46;5.70;1.00
3626;DHT22;1827;50.534;8.316;2023-12-20T16:16:12;5.70;1.00
3626;DHT22;1827;50.534;8.316;2023-12-20T16:18:38;5.70;1.00
3626;DHT22;1827;50.534;8.316;2023-12-20T16:21:04;5.60;1.00
3626;DHT22;1827;50.534;8.316;2023-12-20T16:23:30;5.70;1.00
3626;DHT22;1827;50.534;8.316;2023-12-20T16:25:56;5.60;1.00